Time;durP1;ratioP1;P1;durP2;ratioP2;P2;SDS_P1;SDS_P2;PMS_P1;PMS_P2;Temp;Humidity;BMP_temperature;BMP_pressure;BME280_temperature;BME280_humidity;BME280_pressure;Samples;Min_cycle;Max_cycle;Signal;HPM_P1;HPM_P2
2024/01/07 00:00:22;;;;;;;1999.90;999.90;;;1.40;99.90;;;;;;5016678;28;20496;-71
2024/01/07 00:02:48;;;;;;;1999.90;999.90;;;1.40;99.90;;;;;;5027789;28;20040;-71
2024/01/07 00:05:14;;;;;;;1999.90;999.90;;;1.30;99.90;;;;;;5025123;28;20073;-71
2024/01/07 00:07:40;;;;;;;1999.90;999.90;;;1.30;99.90;;;;;;5032881;28;20479;-71
2024/01/07 00:10:06;;;;;;;1999.90;999.90;;;1.40;99.90;;;;;;5033841;28;20017;-71
2024/01/07 00:12:32;;;;;;;1999.90;999.90;;;1.30;99.90;;;;;;5021035;28;20049;-71
2024/01/07 00:14:58;;;;;;;1999.90;999.90;;;1.40;99.90;;;;;;5032058;28;20103;-71
2024/01/07 00:17:24;;;;;;;1999.90;999.90;;;1.40;99.90;;;;;;5033999;28;20421;-68
2024/01/07 00:19:49;;;;;;;1999.90;999.90;;;1.30;99.90;;;;;;5032714;28;20025;-71
2024/01/07 00:22:15;;;;;;;1999.90;999.90;;;1.30;99.90;;;;;;5028241;28;20037;-71
2024/01/07 00:24:41;;;;;;;1999.90;999.90;;;1.30;99.90;;;;;;5027988;28;20024;-71
2024/01/07 00:27:08;;;;;;;1999.90;999.90;;;1.30;99.90;;;;;;5026262;28;20044;-68
2024/01/07 00:29:35;;;;;;;1999.90;999.90;;;1.30;99.90;;;;;;5033499;28;20025;-69
2024/01/07 00:32:01;;;;;;;1999.90;999.90;;;1.30;99.90;;;;;;5042945;28;20033;-71
2024/01/07 00:34:27;;;;;;;1999.90;999.90;;;1.30;99.90;;;;;;5033885;28;20029;-71
2024/01/07 00:36:53;;;;;;;1999.90;999.90;;;1.30;99.90;;;;;;5019168;28;20018;-71
2024/01/07 00:39:19;;;;;;;1999.90;999.90;;;1.30;99.90;;;;;;5023908;28;20065;-71
2024/01/07 00:41:45;;;;;;;1999.90;999.90;;;1.30;99.90;;;;;;5026700;28;20041;-69
2024/01/07 00:44:10;;;;;;;1999.90;999.90;;;1.40;99.90;;;;;;5012015;28;20076;-71
2024/01/07 00:46:36;;;;;;;1999.90;999.90;;;1.30;99.90;;;;;;5030106;28;20429;-69
2024/01/07 00:49:02;;;;;;;1999.90;999.90;;;1.30;99.90;;;;;;5033338;28;20108;-71
2024/01/07 00:51:28;;;;;;;1999.90;999.90;;;1.40;99.90;;;;;;5032717;28;20075;-72
2024/01/07 00:53:54;;;;;;;1999.90;999.90;;;1.30;99.90;;;;;;5023324;28;20044;-72
2024/01/07 00:56:20;;;;;;;1999.90;999.90;;;1.30;99.90;;;;;;5026418;28;20255;-71
2024/01/07 00:58:46;;;;;;;1999.90;999.90;;;1.30;99.90;;;;;;5023580;28;20108;-69
2024/01/07 01:01:12;;;;;;;1999.90;999.90;;;1.30;99.90;;;;;;5032353;28;20041;-71
2024/01/07 01:03:38;;;;;;;1999.90;999.90;;;1.20;99.90;;;;;;5032918;28;20030;-71
2024/01/07 01:06:04;;;;;;;1999.90;999.90;;;1.20;99.90;;;;;;5030419;28;20034;-69
2024/01/07 01:08:30;;;;;;;1999.90;999.90;;;1.20;99.90;;;;;;5032218;28;20076;-71
2024/01/07 01:10:56;;;;;;;1999.90;999.90;;;1.30;99.90;;;;;;5032918;28;20052;-69
2024/01/07 01:13:22;;;;;;;1999.90;999.90;;;1.30;99.90;;;;;;5031493;28;20025;-71
2024/01/07 01:15:48;;;;;;;1999.90;999.90;;;1.20;99.90;;;;;;5032328;28;20029;-71
2024/01/07 01:18:14;;;;;;;1999.90;999.90;;;1.20;99.90;;;;;;5028302;28;20484;-71
2024/01/07 01:20:39;;;;;;;1999.90;999.90;;;1.20;99.90;;;;;;5032129;28;20108;-71
2024/01/07 01:23:05;;;;;;;1999.90;999.90;;;1.20;99.90;;;;;;5023720;28;20029;-71
2024/01/07 01:25:31;;;;;;;1999.90;999.90;;;1.20;99.90;;;;;;5030569;28;20294;-71
2024/01/07 01:27:58;;;;;;;1999.90;999.90;;;1.10;99.90;;;;;;5032127;28;20038;-71
2024/01/07 01:30:24;;;;;;;1999.90;999.90;;;1.10;99.90;;;;;;5031601;28;20037;-71
2024/01/07 01:32:49;;;;;;;1999.90;999.90;;;1.00;99.90;;;;;;5032217;28;20122;-71
2024/01/07 01:35:15;;;;;;;1999.90;999.90;;;1.10;99.90;;;;;;5028932;28;20030;-71
2024/01/07 01:37:41;;;;;;;1999.90;999.90;;;1.10;99.90;;;;;;5015623;28;20051;-71
2024/01/07 01:40:07;;;;;;;1999.90;999.90;;;1.10;99.90;;;;;;5026723;28;20302;-71
2024/01/07 01:42:33;;;;;;;1999.90;999.90;;;1.10;99.90;;;;;;5031381;28;20057;-71
2024/01/07 01:45:01;;;;;;;1999.90;999.90;;;1.00;99.90;;;;;;5032404;28;20041;-71
2024/01/07 01:47:29;;;;;;;1999.90;999.90;;;1.00;99.90;;;;;;5022509;28;20144;-71
2024/01/07 01:49:55;;;;;;;1999.90;999.90;;;1.00;99.90;;;;;;5030605;28;20036;-71
2024/01/07 01:52:21;;;;;;;1999.90;999.90;;;1.00;99.90;;;;;;5031631;28;20022;-71
2024/01/07 01:54:47;;;;;;;1999.90;999.90;;;0.90;99.90;;;;;;5026115;28;20341;-68
2024/01/07 01:57:19;;;;;;;1999.90;999.90;;;0.90;99.90;;;;;;5016740;28;20045;-71
2024/01/07 01:59:45;;;;;;;1999.90;999.90;;;0.90;99.90;;;;;;5030028;28;20021;-70
2024/01/07 02:02:11;;;;;;;1999.90;999.90;;;0.90;99.90;;;;;;5032141;28;20109;-70
2024/01/07 02:04:37;;;;;;;1999.90;999.90;;;0.90;99.90;;;;;;5027027;28;20032;-71
2024/01/07 02:07:03;;;;;;;1999.90;999.90;;;1.00;99.90;;;;;;5031690;28;20042;-71
2024/01/07 02:09:28;;;;;;;1999.90;999.90;;;0.90;99.90;;;;;;5031155;28;20123;-71
2024/01/07 02:12:04;;;;;;;1999.90;999.90;;;0.90;99.90;;;;;;5032000;28;20320;-71
2024/01/07 02:14:30;;;;;;;1999.90;999.90;;;0.90;99.90;;;;;;5030950;28;20030;-71
2024/01/07 02:16:56;;;;;;;1999.90;999.90;;;1.00;99.90;;;;;;5026034;28;20339;-71
2024/01/07 02:19:22;;;;;;;1999.90;999.90;;;1.00;99.90;;;;;;5031675;28;20033;-71
2024/01/07 02:21:50;;;;;;;1999.90;999.90;;;1.00;99.90;;;;;;5024135;28;20328;-69
2024/01/07 02:24:16;;;;;;;1999.90;999.90;;;1.00;99.90;;;;;;5031572;28;20168;-69
2024/01/07 02:26:42;;;;;;;1999.90;999.90;;;1.00;99.90;;;;;;5031247;28;20325;-71
2024/01/07 02:29:08;;;;;;;1999.90;999.90;;;1.00;99.90;;;;;;5031544;28;20029;-71
2024/01/07 02:31:34;;;;;;;1999.90;999.90;;;1.00;99.90;;;;;;5031244;28;20498;-68
2024/01/07 02:33:59;;;;;;;1999.90;999.90;;;1.00;99.90;;;;;;5028553;28;20048;-71
2024/01/07 02:36:25;;;;;;;1999.90;999.90;;;1.00;99.90;;;;;;5029110;28;20106;-70
2024/01/07 02:38:51;;;;;;;1999.90;999.90;;;1.00;99.90;;;;;;5030574;28;20197;-71
2024/01/07 02:41:17;;;;;;;1999.90;999.90;;;1.00;99.90;;;;;;5030357;28;20488;-71
2024/01/07 02:43:42;;;;;;;1999.90;999.90;;;1.00;99.90;;;;;;5024976;28;20057;-68
2024/01/07 02:46:08;;;;;;;1999.90;999.90;;;0.90;99.90;;;;;;5023801;28;20030;-70
2024/01/07 02:48:34;;;;;;;1999.90;999.90;;;0.90;99.90;;;;;;5028802;28;20084;-71
2024/01/07 02:51:03;;;;;;;1999.90;999.90;;;0.90;99.90;;;;;;5028302;28;20026;-70
2024/01/07 02:53:29;;;;;;;1999.90;999.90;;;0.90;99.90;;;;;;5028036;28;20037;-71
2024/01/07 02:55:54;;;;;;;1999.90;999.90;;;0.90;99.90;;;;;;5021520;28;20362;-68
2024/01/07 02:58:20;;;;;;;1999.90;999.90;;;0.90;99.90;;;;;;5034722;28;20087;-71
2024/01/07 03:00:46;;;;;;;1999.90;999.90;;;0.90;99.90;;;;;;5033546;28;20025;-69
2024/01/07 03:03:12;;;;;;;1999.90;999.90;;;0.90;99.90;;;;;;5034177;28;20221;-71
2024/01/07 03:05:37;;;;;;;1999.90;999.90;;;0.90;99.90;;;;;;5034927;28;20120;-71
2024/01/07 03:08:03;;;;;;;1999.90;999.90;;;0.90;99.90;;;;;;5033864;28;20030;-69
2024/01/07 03:10:29;;;;;;;1999.90;999.90;;;0.90;99.90;;;;;;5034143;28;20072;-71
2024/01/07 03:12:55;;;;;;;1999.90;999.90;;;0.90;99.90;;;;;;5033507;28;20341;-71
2024/01/07 03:15:20;;;;;;;1999.90;999.90;;;0.90;99.90;;;;;;5034784;28;20049;-70
2024/01/07 03:17:46;;;;;;;1999.90;999.90;;;0.90;99.90;;;;;;5034577;28;20446;-71
2024/01/07 03:20:12;;;;;;;1999.90;999.90;;;0.90;99.90;;;;;;5034043;28;20049;-71
2024/01/07 03:22:38;;;;;;;1999.90;999.90;;;1.00;99.90;;;;;;5034331;28;20064;-69
2024/01/07 03:25:04;;;;;;;1999.90;999.90;;;1.00;99.90;;;;;;5034224;28;20112;-68
2024/01/07 03:27:30;;;;;;;1999.90;999.90;;;0.90;99.90;;;;;;5025551;28;20455;-71
2024/01/07 03:29:56;;;;;;;1999.90;999.90;;;0.90;99.90;;;;;;5030150;28;20034;-71
2024/01/07 03:32:21;;;;;;;1999.90;999.90;;;0.80;99.90;;;;;;5028008;28;20056;-71
2024/01/07 03:34:47;;;;;;;1999.90;999.90;;;0.80;99.90;;;;;;5032896;28;20073;-71
2024/01/07 03:37:13;;;;;;;1999.90;999.90;;;0.80;99.90;;;;;;5032717;28;20037;-70
2024/01/07 03:39:39;;;;;;;1999.90;999.90;;;0.70;99.90;;;;;;5033749;28;20076;-71
2024/01/07 03:42:11;;;;;;;1999.90;999.90;;;0.70;99.90;;;;;;5029610;28;20099;-71
2024/01/07 03:44:39;;;;;;;1999.90;999.90;;;0.70;99.90;;;;;;5024381;28;20029;-71
2024/01/07 03:47:06;;;;;;;1999.90;999.90;;;0.70;99.90;;;;;;5028696;28;20037;-71
2024/01/07 03:49:32;;;;;;;1999.90;999.90;;;0.70;99.90;;;;;;5033400;28;20026;-71
2024/01/07 03:51:58;;;;;;;1999.90;999.90;;;0.70;99.90;;;;;;5029005;28;20056;-71
2024/01/07 03:54:24;;;;;;;1999.90;999.90;;;0.70;99.90;;;;;;5030843;28;20413;-71
2024/01/07 03:56:49;;;;;;;1999.90;999.90;;;0.70;99.90;;;;;;5033082;28;20022;-71
2024/01/07 03:59:15;;;;;;;1999.90;999.90;;;0.70;99.90;;;;;;5032417;28;20294;-71
2024/01/07 04:01:41;;;;;;;1999.90;999.90;;;0.70;99.90;;;;;;5024764;28;20018;-71
2024/01/07 04:04:07;;;;;;;1999.90;999.90;;;0.70;99.90;;;;;;5029886;28;20302;-71
2024/01/07 04:06:33;;;;;;;1999.90;999.90;;;0.80;99.90;;;;;;5038264;28;20017;-71
2024/01/07 04:08:59;;;;;;;1999.90;999.90;;;0.70;99.90;;;;;;5029017;28;20037;-72
2024/01/07 04:11:25;;;;;;;1999.90;999.90;;;0.70;99.90;;;;;;5032746;28;20259;-71
2024/01/07 04:13:50;;;;;;;1999.90;999.90;;;0.70;99.90;;;;;;5027894;28;20033;-71
2024/01/07 04:16:20;;;;;;;1999.90;999.90;;;0.70;99.90;;;;;;5030327;28;20033;-71
2024/01/07 04:18:46;;;;;;;1999.90;999.90;;;0.70;99.90;;;;;;5026977;28;20324;-71
2024/01/07 04:21:13;;;;;;;1999.90;999.90;;;0.70;99.90;;;;;;5037750;28;20036;-71
2024/01/07 04:23:43;;;;;;;1999.90;999.90;;;0.70;99.90;;;;;;5033905;28;20043;-71
2024/01/07 04:26:09;;;;;;;1999.90;999.90;;;0.70;99.90;;;;;;5029730;28;20068;-69
2024/01/07 04:28:35;;;;;;;1999.90;999.90;;;0.70;99.90;;;;;;5034885;28;20021;-68
2024/01/07 04:31:01;;;;;;;1999.90;999.90;;;0.70;99.90;;;;;;5034756;28;20182;-69
2024/01/07 04:33:27;;;;;;;1999.90;999.90;;;0.80;99.90;;;;;;5031841;28;20029;-72
2024/01/07 04:35:57;;;;;;;1999.90;999.90;;;0.80;99.90;;;;;;5044843;28;20052;-71
2024/01/07 04:38:23;;;;;;;1999.90;999.90;;;0.80;99.90;;;;;;5025218;28;20053;-71
2024/01/07 04:40:49;;;;;;;1999.90;999.90;;;0.80;99.90;;;;;;5029956;28;20026;-71
2024/01/07 04:43:15;;;;;;;1999.90;999.90;;;0.80;99.90;;;;;;5035419;28;20037;-71
2024/01/07 04:45:41;;;;;;;1999.90;999.90;;;0.80;99.90;;;;;;5039241;28;20079;-71
2024/01/07 04:48:07;;;;;;;1999.90;999.90;;;0.90;99.90;;;;;;5041309;28;20029;-71
2024/01/07 04:50:33;;;;;;;1999.90;999.90;;;0.90;99.90;;;;;;5030866;28;20036;-71
2024/01/07 04:52:58;;;;;;;1999.90;999.90;;;0.90;99.90;;;;;;5032973;28;20293;-68
2024/01/07 04:55:24;;;;;;;1999.90;999.90;;;0.90;99.90;;;;;;5032980;28;20469;-70
2024/01/07 04:57:50;;;;;;;1999.90;999.90;;;0.80;99.90;;;;;;5030469;28;20091;-71
2024/01/07 05:00:16;;;;;;;1999.90;999.90;;;0.90;99.90;;;;;;5032643;28;20375;-71
2024/01/07 05:02:42;;;;;;;1999.90;999.90;;;0.90;99.90;;;;;;5030043;28;20087;-71
2024/01/07 05:05:09;;;;;;;1999.90;999.90;;;0.90;99.90;;;;;;5032907;28;20030;-69
2024/01/07 05:07:34;;;;;;;1999.90;999.90;;;0.90;99.90;;;;;;5024519;28;20351;-71
2024/01/07 05:10:00;;;;;;;1999.90;999.90;;;0.90;99.90;;;;;;5032456;28;20029;-71
2024/01/07 05:12:26;;;;;;;1999.90;999.90;;;0.90;99.90;;;;;;5031539;28;20320;-70
2024/01/07 05:14:52;;;;;;;1999.90;999.90;;;0.80;99.90;;;;;;5031646;28;20164;-71
2024/01/07 05:17:18;;;;;;;1999.90;999.90;;;0.90;99.90;;;;;;5032688;28;20651;-70
2024/01/07 05:19:44;;;;;;;1999.90;999.90;;;1.00;99.90;;;;;;5031360;28;20094;-71
2024/01/07 05:22:10;;;;;;;1999.90;999.90;;;0.90;99.90;;;;;;5031019;28;20320;-71
2024/01/07 05:24:39;;;;;;;1999.90;999.90;;;0.90;99.90;;;;;;5027818;28;20079;-71
2024/01/07 05:27:05;;;;;;;1999.90;999.90;;;0.90;99.90;;;;;;5032222;28;20282;-71
2024/01/07 05:29:33;;;;;;;1999.90;999.90;;;0.90;99.90;;;;;;5035544;28;20021;-71
2024/01/07 05:32:00;;;;;;;1999.90;999.90;;;0.90;99.90;;;;;;5032039;28;20339;-71
2024/01/07 05:34:26;;;;;;;;;;;0.90;99.90;;;;;;5032348;28;20033;-71
2024/01/07 05:36:52;;;;;;;1999.90;999.90;;;1.00;99.90;;;;;;5028836;28;20320;-71
2024/01/07 05:39:17;;;;;;;1999.90;999.90;;;0.90;99.90;;;;;;5030834;28;20100;-71
2024/01/07 05:41:43;;;;;;;1999.90;999.90;;;0.90;99.90;;;;;;5031078;28;20037;-71
2024/01/07 05:44:09;;;;;;;1999.90;999.90;;;1.00;99.90;;;;;;5031193;28;20022;-70
2024/01/07 05:46:39;;;;;;;1999.90;999.90;;;1.00;99.90;;;;;;5031878;28;20091;-71
2024/01/07 05:49:05;;;;;;;1999.90;999.90;;;0.90;99.90;;;;;;5021201;28;20030;-71
2024/01/07 05:51:31;;;;;;;1999.90;999.90;;;0.90;99.90;;;;;;5030871;28;20032;-71
2024/01/07 05:53:57;;;;;;;1999.90;999.90;;;0.90;99.90;;;;;;5031153;28;20029;-68
2024/01/07 05:56:22;;;;;;;1999.90;999.90;;;0.90;99.90;;;;;;5031740;28;20301;-71
2024/01/07 05:58:48;;;;;;;1999.90;999.90;;;0.90;99.90;;;;;;5023433;28;20109;-71
2024/01/07 06:01:20;;;;;;;1999.90;999.90;;;0.90;99.90;;;;;;5029155;28;20029;-71
2024/01/07 06:03:47;;;;;;;1999.90;999.90;;;1.00;99.90;;;;;;5028750;28;20022;-69
2024/01/07 06:06:14;;;;;;;1999.90;999.90;;;0.90;99.90;;;;;;5029709;28;20649;-71
2024/01/07 06:08:43;;;;;;;1999.90;999.90;;;1.00;99.90;;;;;;5024908;28;20133;-71
2024/01/07 06:11:11;;;;;;;1999.90;999.90;;;1.00;99.90;;;;;;5031138;28;20025;-71
2024/01/07 06:13:37;;;;;;;1999.90;999.90;;;0.90;99.90;;;;;;5030981;28;20483;-70
2024/01/07 06:16:04;;;;;;;1999.90;999.90;;;0.90;99.90;;;;;;5030705;28;20408;-71
2024/01/07 06:18:30;;;;;;;1999.90;999.90;;;0.90;99.90;;;;;;5032922;28;20081;-71
2024/01/07 06:20:56;;;;;;;1999.90;999.90;;;0.90;99.90;;;;;;5032355;28;20049;-68
2024/01/07 06:23:22;;;;;;;1999.90;999.90;;;0.90;99.90;;;;;;5031052;28;20025;-71
2024/01/07 06:25:48;;;;;;;1999.90;999.90;;;0.90;99.90;;;;;;5033785;28;20428;-71
2024/01/07 06:28:14;;;;;;;1999.90;999.90;;;0.90;99.90;;;;;;5036166;28;20117;-71
2024/01/07 06:30:39;;;;;;;1999.90;999.90;;;0.90;99.90;;;;;;5033718;28;20108;-70
2024/01/07 06:33:05;;;;;;;1999.90;999.90;;;0.80;99.90;;;;;;5034992;28;20071;-71
2024/01/07 06:35:31;;;;;;;1999.90;999.90;;;0.80;99.90;;;;;;5030412;28;20368;-71
2024/01/07 06:37:57;;;;;;;1999.90;999.90;;;0.70;99.90;;;;;;5034209;28;20037;-71
2024/01/07 06:40:23;;;;;;;1999.90;999.90;;;0.80;99.90;;;;;;5028068;28;20447;-71
2024/01/07 06:42:49;;;;;;;1999.90;999.90;;;0.70;99.90;;;;;;5029670;28;20049;-71
2024/01/07 06:45:16;;;;;;;1999.90;999.90;;;0.70;99.90;;;;;;5036093;28;20033;-71
2024/01/07 06:47:42;;;;;;;1999.90;999.90;;;0.70;99.90;;;;;;5027656;28;20034;-71
2024/01/07 06:50:09;;;;;;;1999.90;999.90;;;0.80;99.90;;;;;;5020244;28;20099;-71
2024/01/07 06:52:35;;;;;;;1999.90;999.90;;;0.70;99.90;;;;;;5025006;28;20343;-71
2024/01/07 06:55:01;;;;;;;1999.90;999.90;;;0.70;99.90;;;;;;5032737;28;20432;-70
2024/01/07 06:57:27;;;;;;;1999.90;999.90;;;0.70;99.90;;;;;;5034304;28;20080;-71
2024/01/07 06:59:53;;;;;;;1999.90;999.90;;;0.70;99.90;;;;;;5031419;28;20485;-69
2024/01/07 07:02:21;;;;;;;1999.90;999.90;;;0.70;99.90;;;;;;5024474;28;20065;-72
2024/01/07 07:04:48;;;;;;;1999.90;999.90;;;0.70;99.90;;;;;;5035581;28;20274;-71
2024/01/07 07:07:13;;;;;;;1999.90;999.90;;;0.70;99.90;;;;;;5036312;28;20473;-71
2024/01/07 07:09:39;;;;;;;1999.90;999.90;;;0.70;99.90;;;;;;5033597;28;20029;-71
2024/01/07 07:12:07;;;;;;;1999.90;999.90;;;0.70;99.90;;;;;;5035391;28;21909;-68
2024/01/07 07:14:34;;;;;;;1999.90;999.90;;;0.70;99.90;;;;;;5026834;28;20259;-71
2024/01/07 07:17:00;;;;;;;1999.90;999.90;;;0.70;99.90;;;;;;5033368;28;20033;-71
2024/01/07 07:19:26;;;;;;;1999.90;999.90;;;0.70;99.90;;;;;;5030433;28;20116;-71
2024/01/07 07:21:52;;;;;;;1999.90;999.90;;;0.70;99.90;;;;;;5026547;28;20105;-71
2024/01/07 07:24:18;;;;;;;1999.90;999.90;;;0.70;99.90;;;;;;5032806;28;20361;-71
2024/01/07 07:26:44;;;;;;;1999.90;999.90;;;0.70;99.90;;;;;;5034139;28;20435;-71
2024/01/07 07:29:10;;;;;;;1999.90;999.90;;;0.70;99.90;;;;;;5032663;28;20729;-70
2024/01/07 07:31:37;;;;;;;1999.90;999.90;;;0.70;99.90;;;;;;5029432;28;20083;-68
2024/01/07 07:34:05;;;;;;;1999.90;999.90;;;0.70;99.90;;;;;;5026515;28;20029;-69
2024/01/07 07:36:32;;;;;;;1999.90;999.90;;;0.70;99.90;;;;;;5025401;28;20024;-71
2024/01/07 07:38:57;;;;;;;1999.90;999.90;;;0.60;99.90;;;;;;5031742;28;20116;-71
2024/01/07 07:41:23;;;;;;;1999.90;999.90;;;0.60;99.90;;;;;;5034277;28;20484;-68
2024/01/07 07:43:49;;;;;;;1999.90;999.90;;;0.60;99.90;;;;;;5038257;28;20128;-71
2024/01/07 07:46:16;;;;;;;1999.90;999.90;;;0.60;99.90;;;;;;5034720;28;20326;-71
2024/01/07 07:48:42;;;;;;;;;;;0.60;99.90;;;;;;5039935;28;20025;-71
2024/01/07 07:51:08;;;;;;;1999.90;999.90;;;0.60;99.90;;;;;;5037543;28;19924;-71
2024/01/07 07:53:34;;;;;;;1999.90;999.90;;;0.60;99.90;;;;;;5030843;28;20029;-71
2024/01/07 07:56:00;;;;;;;1999.90;999.90;;;0.50;99.90;;;;;;5028960;28;20103;-71
2024/01/07 07:58:26;;;;;;;1999.90;999.90;;;0.50;99.90;;;;;;5032976;28;20049;-71
2024/01/07 08:00:52;;;;;;;1999.90;999.90;;;0.50;99.90;;;;;;5033231;28;20491;-71
2024/01/07 08:03:18;;;;;;;1999.90;999.90;;;0.50;99.90;;;;;;5033180;28;20037;-71
2024/01/07 08:05:44;;;;;;;1999.90;999.90;;;0.50;99.90;;;;;;5033507;28;20029;-71
2024/01/07 08:08:10;;;;;;;1999.90;999.90;;;0.50;99.90;;;;;;5030823;28;20037;-71
2024/01/07 08:10:36;;;;;;;1999.90;999.90;;;0.50;99.90;;;;;;5041086;28;20040;-71
2024/01/07 08:13:02;;;;;;;1999.90;999.90;;;0.50;99.90;;;;;;5029297;28;20077;-71
2024/01/07 08:15:28;;;;;;;1999.90;999.90;;;0.60;99.90;;;;;;5026084;28;20121;-71
2024/01/07 08:17:53;;;;;;;1999.90;999.90;;;0.60;99.90;;;;;;5032357;28;20163;-71
2024/01/07 08:20:19;;;;;;;1999.90;999.90;;;0.60;99.90;;;;;;5033355;28;20416;-71
2024/01/07 08:22:45;;;;;;;1999.90;999.90;;;0.50;99.90;;;;;;5048304;28;20376;-71
2024/01/07 08:25:11;;;;;;;1999.90;999.90;;;0.50;99.90;;;;;;5032346;28;20317;-70
2024/01/07 08:27:37;;;;;;;1999.90;999.90;;;0.50;99.90;;;;;;5032979;28;20046;-71
2024/01/07 08:30:04;;;;;;;1999.90;999.90;;;0.50;99.90;;;;;;5032248;28;20263;-68
2024/01/07 08:32:30;;;;;;;1999.90;999.90;;;0.50;99.90;;;;;;5032858;28;20025;-69
2024/01/07 08:34:56;;;;;;;1999.90;999.90;;;0.40;99.90;;;;;;5031749;28;20286;-71
2024/01/07 08:37:22;;;;;;;1999.90;999.90;;;0.40;99.90;;;;;;5033031;28;20032;-71
2024/01/07 08:39:47;;;;;;;1999.90;999.90;;;0.40;99.90;;;;;;5031829;28;20033;-68
2024/01/07 08:42:13;;;;;;;1999.90;999.90;;;0.40;99.90;;;;;;5030958;28;20103;-71
2024/01/07 08:44:39;;;;;;;1999.90;999.90;;;0.40;99.90;;;;;;5031068;28;20065;-71
2024/01/07 08:47:05;;;;;;;1999.90;999.90;;;0.40;99.90;;;;;;5027650;28;20716;-71
2024/01/07 08:49:34;;;;;;;1999.90;999.90;;;0.30;99.90;;;;;;5032188;28;20471;-71
2024/01/07 08:52:00;;;;;;;1999.90;999.90;;;0.40;99.90;;;;;;5031689;28;20022;-70
2024/01/07 08:54:26;;;;;;;1999.90;999.90;;;0.40;99.90;;;;;;5028386;28;20025;-71
2024/01/07 08:56:52;;;;;;;1999.90;999.90;;;0.40;99.90;;;;;;5031987;28;20060;-71
2024/01/07 08:59:18;;;;;;;1999.90;999.90;;;0.40;99.90;;;;;;5031740;28;20061;-71
2024/01/07 09:01:44;;;;;;;1999.90;999.90;;;0.40;99.90;;;;;;5033058;28;20388;-71
2024/01/07 09:04:10;;;;;;;1999.90;999.90;;;0.40;99.90;;;;;;5030110;28;20029;-70
2024/01/07 09:06:36;;;;;;;1999.90;999.90;;;0.40;99.90;;;;;;5032554;28;20055;-70
2024/01/07 09:09:02;;;;;;;1999.90;999.90;;;0.40;99.90;;;;;;5031167;28;20032;-68
2024/01/07 09:11:28;;;;;;;1999.90;999.90;;;0.40;99.90;;;;;;5029060;28;20136;-71
2024/01/07 09:13:54;;;;;;;1999.90;999.90;;;0.40;99.90;;;;;;5027072;28;20585;-71
2024/01/07 09:16:19;;;;;;;1999.90;999.90;;;0.40;99.90;;;;;;5033866;28;20025;-68
2024/01/07 09:18:46;;;;;;;1999.90;999.90;;;0.30;99.90;;;;;;5028672;28;20087;-71
2024/01/07 09:21:12;;;;;;;1999.90;999.90;;;0.40;99.90;;;;;;5025487;28;20446;-71
2024/01/07 09:23:38;;;;;;;1999.90;999.90;;;0.40;99.90;;;;;;5028411;28;20090;-71
2024/01/07 09:26:04;;;;;;;1999.90;999.90;;;0.40;99.90;;;;;;5026955;28;20074;-71
2024/01/07 09:28:30;;;;;;;1999.90;999.90;;;0.50;99.90;;;;;;5023573;28;20048;-71
2024/01/07 09:30:56;;;;;;;1999.90;999.90;;;0.50;99.90;;;;;;5017091;28;20026;-71
2024/01/07 09:33:23;;;;;;;1999.90;999.90;;;0.50;99.90;;;;;;5031553;28;20051;-71
2024/01/07 09:35:50;;;;;;;1999.90;999.90;;;0.50;99.90;;;;;;5027916;28;20543;-71
2024/01/07 09:38:16;;;;;;;1999.90;999.90;;;0.60;99.90;;;;;;5032547;28;20517;-71
2024/01/07 09:40:42;;;;;;;1999.90;999.90;;;0.60;99.90;;;;;;5036655;28;20056;-71
2024/01/07 09:43:08;;;;;;;1999.90;999.90;;;0.60;99.90;;;;;;5029573;28;20343;-70
2024/01/07 09:45:41;;;;;;;1999.90;999.90;;;0.60;99.90;;;;;;5029399;28;20101;-71
2024/01/07 09:48:07;;;;;;;1999.90;999.90;;;0.60;99.90;;;;;;5024609;28;20452;-71
2024/01/07 09:50:33;;;;;;;1999.90;999.90;;;0.70;99.90;;;;;;5032856;28;20031;-71
2024/01/07 09:53:02;;;;;;;1999.90;999.90;;;0.70;99.90;;;;;;5035740;28;20281;-71
2024/01/07 09:55:36;;;;;;;1999.90;999.90;;;0.80;99.90;;;;;;5020661;28;20267;-71
2024/01/07 09:58:03;;;;;;;1999.90;999.90;;;0.90;99.90;;;;;;5028800;28;20293;-71
2024/01/07 10:00:29;;;;;;;1999.90;999.90;;;0.80;99.90;;;;;;5020433;28;20029;-71
2024/01/07 10:02:55;;;;;;;1999.90;999.90;;;0.90;99.90;;;;;;5031424;28;20387;-71
2024/01/07 10:05:21;;;;;;;1999.90;999.90;;;0.90;99.90;;;;;;5029008;28;20033;-70
2024/01/07 10:07:47;;;;;;;1999.90;999.90;;;0.90;99.90;;;;;;5036418;28;20384;-71
2024/01/07 10:10:17;;;;;;;1999.90;999.90;;;0.90;99.90;;;;;;5031847;28;20064;-71
2024/01/07 10:12:47;;;;;;;1999.90;999.90;;;1.00;99.90;;;;;;5037420;28;20033;-71
2024/01/07 10:15:13;;;;;;;1999.90;999.90;;;1.00;99.90;;;;;;5027658;28;20044;-71
2024/01/07 10:17:42;;;;;;;1999.90;999.90;;;1.10;99.90;;;;;;5035004;28;20030;-71
2024/01/07 10:20:09;;;;;;;1999.90;999.90;;;1.20;99.90;;;;;;5027584;28;20057;-71
2024/01/07 10:22:37;;;;;;;1999.90;999.90;;;1.20;99.90;;;;;;5033491;28;20033;-68
2024/01/07 10:25:04;;;;;;;1999.90;999.90;;;1.20;99.90;;;;;;5031997;28;20136;-71
2024/01/07 10:27:33;;;;;;;1999.90;999.90;;;1.20;99.90;;;;;;5036721;28;20033;-71
2024/01/07 10:29:59;;;;;;;1999.90;999.90;;;1.20;99.90;;;;;;5035547;28;20301;-71
2024/01/07 10:32:25;;;;;;;1999.90;999.90;;;1.20;99.90;;;;;;5031676;28;20578;-71
2024/01/07 10:34:55;;;;;;;1999.90;999.90;;;1.30;99.90;;;;;;5029796;28;20121;-71
2024/01/07 10:37:22;;;;;;;1999.90;999.90;;;1.40;99.90;;;;;;5029093;28;20263;-70
2024/01/07 10:39:49;;;;;;;1999.90;999.90;;;1.40;99.90;;;;;;5025025;28;20457;-71
2024/01/07 10:42:18;;;;;;;1999.90;999.90;;;1.30;99.90;;;;;;5028635;28;20042;-70
2024/01/07 10:44:44;;;;;;;1999.90;999.90;;;1.30;99.90;;;;;;5040553;28;20311;-70
2024/01/07 10:47:12;;;;;;;1999.90;999.90;;;1.20;99.90;;;;;;5035429;28;20096;-71
2024/01/07 10:49:40;;;;;;;1999.90;999.90;;;1.10;99.90;;;;;;5041297;28;20030;-71
2024/01/07 10:52:08;;;;;;;1999.90;999.90;;;1.00;99.90;;;;;;5033801;28;20109;-71
2024/01/07 10:54:35;;;;;;;1999.90;999.90;;;1.00;99.90;;;;;;5034827;28;20025;-70
2024/01/07 10:57:18;;;;;;;1999.90;999.90;;;1.00;99.90;;;;;;5033908;28;20029;-71
2024/01/07 10:59:46;;;;;;;1999.90;999.90;;;1.10;99.90;;;;;;5028518;28;20104;-70
2024/01/07 11:02:13;;;;;;;1999.90;999.90;;;1.10;99.90;;;;;;5035191;28;20021;-71
2024/01/07 11:04:45;;;;;;;1999.90;999.90;;;1.20;99.90;;;;;;5034378;28;20104;-71
2024/01/07 11:07:37;;;;;;;1999.90;999.90;;;1.20;99.90;;;;;;5030135;28;20028;-71
2024/01/07 11:10:41;;;;;;;1999.90;999.90;;;1.20;99.90;;;;;;5034468;28;20040;-70
2024/01/07 11:13:07;;;;;;;1999.90;999.90;;;1.30;99.90;;;;;;5027339;28;20077;-71
2024/01/07 11:15:49;;;;;;;1999.90;999.90;;;1.20;99.90;;;;;;5034084;28;20328;-71
2024/01/07 11:18:23;;;;;;;1999.90;999.90;;;1.10;99.90;;;;;;5032990;28;20118;-71
2024/01/07 11:20:49;;;;;;;1999.90;999.90;;;0.90;99.90;;;;;;5020669;28;20029;-71
2024/01/07 11:23:32;;;;;;;1999.90;999.90;;;1.00;99.90;;;;;;5033510;28;20029;-71
2024/01/07 11:26:02;;;;;;;1999.90;999.90;;;1.00;99.90;;;;;;5033050;28;20041;-71
2024/01/07 11:29:08;;;;;;;1999.90;999.90;;;1.00;99.90;;;;;;5031023;28;20179;-70
2024/01/07 11:31:44;;;;;;;1999.90;999.90;;;1.00;99.90;;;;;;5027944;28;20108;-71
2024/01/07 11:34:10;;;;;;;1999.90;999.90;;;1.10;99.90;;;;;;5017186;28;20022;-70
2024/01/07 11:36:36;;;;;;;1999.90;999.90;;;1.10;99.90;;;;;;5042133;28;20041;-71
2024/01/07 11:39:03;;;;;;;1999.90;999.90;;;1.10;99.90;;;;;;5028445;28;20031;-71
2024/01/07 11:41:33;;;;;;;1999.90;999.90;;;1.10;99.90;;;;;;5034217;28;20161;-68
2024/01/07 11:44:00;;;;;;;1999.90;999.90;;;1.10;99.90;;;;;;5031899;28;20053;-71
2024/01/07 11:46:27;;;;;;;1999.90;999.90;;;1.10;99.90;;;;;;5030940;28;20038;-71
2024/01/07 11:48:58;;;;;;;1999.90;999.90;;;1.10;99.90;;;;;;5030449;28;20442;-71
2024/01/07 11:51:34;;;;;;;1999.90;999.90;;;1.00;99.90;;;;;;5024541;28;20068;-68
2024/01/07 11:54:01;;;;;;;1999.90;999.90;;;1.10;99.90;;;;;;5007108;28;20104;-70
2024/01/07 11:56:28;;;;;;;1999.90;999.90;;;1.20;99.90;;;;;;5036217;28;20033;-71
2024/01/07 11:58:56;;;;;;;1999.90;999.90;;;1.30;99.90;;;;;;5029878;28;20037;-70
2024/01/07 12:01:22;;;;;;;1999.90;999.90;;;1.50;99.90;;;;;;5039444;28;20041;-69
2024/01/07 12:03:48;;;;;;;1999.90;999.90;;;1.60;99.90;;;;;;5029138;28;20128;-71
2024/01/07 12:06:14;;;;;;;1999.90;999.90;;;1.40;99.90;;;;;;5035981;28;20041;-71